sensor_id;sensor_type;location;lat;lon;timestamp;pressure;altitude;pressure_sealevel;temperature;humidity
39435;BME280;66825;51.880;-0.518;2023-07-29T00:01:50;99543.72;;;22.28;49.01
39435;BME280;66825;51.880;-0.518;2023-07-29T00:04:16;99556.53;;;22.40;49.04
39435;BME280;66825;51.880;-0.518;2023-07-29T00:06:42;99601.97;;;22.69;49.11
39435;BME280;66825;51.880;-0.518;2023-07-29T00:09:07;99592.13;;;22.68;49.03
39435;BME280;66825;51.880;-0.518;2023-07-29T00:11:33;99589.66;;;22.63;49.13
39435;BME280;66825;51.880;-0.518;2023-07-29T00:14:02;99597.63;;;22.68;49.02
39435;BME280;66825;51.880;-0.518;2023-07-29T00:16:27;99598.44;;;22.68;49.11
39435;BME280;66825;51.880;-0.518;2023-07-29T00:18:53;99602.34;;;22.67;49.07
39435;BME280;66825;51.880;-0.518;2023-07-29T00:21:18;99599.59;;;22.67;49.13
39435;BME280;66825;51.880;-0.518;2023-07-29T00:23:45;99592.88;;;22.65;49.14
39435;BME280;66825;51.880;-0.518;2023-07-29T00:26:10;99582.03;;;22.56;49.19
39435;BME280;66825;51.880;-0.518;2023-07-29T00:28:35;99593.28;;;22.67;49.10
39435;BME280;66825;51.880;-0.518;2023-07-29T00:31:02;99590.53;;;22.67;49.12
39435;BME280;66825;51.880;-0.518;2023-07-29T00:33:27;99600.72;;;22.66;49.08
39435;BME280;66825;51.880;-0.518;2023-07-29T00:35:52;99601.88;;;22.65;49.11
39435;BME280;66825;51.880;-0.518;2023-07-29T00:38:18;99608.97;;;22.66;49.08
39435;BME280;66825;51.880;-0.518;2023-07-29T00:40:43;99605.00;;;22.64;49.16
39435;BME280;66825;51.880;-0.518;2023-07-29T00:43:09;99594.72;;;22.61;49.24
39435;BME280;66825;51.880;-0.518;2023-07-29T00:45:34;99569.28;;;22.48;49.02
39435;BME280;66825;51.880;-0.518;2023-07-29T00:48:01;99591.25;;;22.64;49.06
39435;BME280;66825;51.880;-0.518;2023-07-29T00:50:28;99583.81;;;22.64;49.00
39435;BME280;66825;51.880;-0.518;2023-07-29T00:52:55;99582.84;;;22.57;49.12
39435;BME280;66825;51.880;-0.518;2023-07-29T00:55:22;99584.97;;;22.63;49.10
39435;BME280;66825;51.880;-0.518;2023-07-29T00:57:48;99589.66;;;22.63;49.09
39435;BME280;66825;51.880;-0.518;2023-07-29T01:00:15;99595.16;;;22.63;49.29
39435;BME280;66825;51.880;-0.518;2023-07-29T01:02:42;99585.31;;;22.62;49.40
39435;BME280;66825;51.880;-0.518;2023-07-29T01:05:08;99591.59;;;22.62;49.29
39435;BME280;66825;51.880;-0.518;2023-07-29T01:07:49;99582.56;;;22.62;48.89
39435;BME280;66825;51.880;-0.518;2023-07-29T01:13:16;99578.44;;;22.52;49.18
39435;BME280;66825;51.880;-0.518;2023-07-29T01:15:54;99585.94;;;22.55;49.12
39435;BME280;66825;51.880;-0.518;2023-07-29T01:18:27;99586.47;;;22.61;49.08
39435;BME280;66825;51.880;-0.518;2023-07-29T01:20:57;99580.19;;;22.60;49.20
39435;BME280;66825;51.880;-0.518;2023-07-29T01:23:25;99571.50;;;22.58;49.13
39435;BME280;66825;51.880;-0.518;2023-07-29T01:25:50;99571.88;;;22.57;49.17
39435;BME280;66825;51.880;-0.518;2023-07-29T01:28:16;99577.00;;;22.58;49.13
39435;BME280;66825;51.880;-0.518;2023-07-29T01:30:42;99580.53;;;22.59;49.31
39435;BME280;66825;51.880;-0.518;2023-07-29T01:33:16;99574.25;;;22.58;49.12
39435;BME280;66825;51.880;-0.518;2023-07-29T01:35:57;99578.16;;;22.57;49.22
39435;BME280;66825;51.880;-0.518;2023-07-29T01:38:33;99576.13;;;22.54;49.09
39435;BME280;66825;51.880;-0.518;2023-07-29T01:41:03;99580.91;;;22.57;49.17
39435;BME280;66825;51.880;-0.518;2023-07-29T01:43:30;99555.84;;;22.43;49.10
39435;BME280;66825;51.880;-0.518;2023-07-29T01:45:56;99582.03;;;22.56;48.92
39435;BME280;66825;51.880;-0.518;2023-07-29T01:48:21;99580.13;;;22.57;49.03
39435;BME280;66825;51.880;-0.518;2023-07-29T01:50:47;99576.56;;;22.56;49.28
39435;BME280;66825;51.880;-0.518;2023-07-29T01:53:12;99573.81;;;22.56;49.15
39435;BME280;66825;51.880;-0.518;2023-07-29T01:55:38;99570.28;;;22.56;49.22
39435;BME280;66825;51.880;-0.518;2023-07-29T01:58:04;99570.28;;;22.56;49.16
39435;BME280;66825;51.880;-0.518;2023-07-29T02:00:29;99506.97;;;22.16;49.08
39435;BME280;66825;51.880;-0.518;2023-07-29T02:02:55;99562.41;;;22.54;49.00
39435;BME280;66825;51.880;-0.518;2023-07-29T02:05:20;99556.09;;;22.53;49.12
39435;BME280;66825;51.880;-0.518;2023-07-29T02:07:46;99557.72;;;22.55;49.14
39435;BME280;66825;51.880;-0.518;2023-07-29T02:10:11;99562.03;;;22.56;49.15
39435;BME280;66825;51.880;-0.518;2023-07-29T02:12:37;99558.41;;;22.51;49.09
39435;BME280;66825;51.880;-0.518;2023-07-29T02:15:03;99562.41;;;22.54;49.15
39435;BME280;66825;51.880;-0.518;2023-07-29T02:17:30;99553.88;;;22.43;49.15
39435;BME280;66825;51.880;-0.518;2023-07-29T02:19:55;99568.22;;;22.52;49.05
39435;BME280;66825;51.880;-0.518;2023-07-29T02:22:21;99512.00;;;22.14;49.20
39435;BME280;66825;51.880;-0.518;2023-07-29T02:24:46;99565.06;;;22.50;49.12
39435;BME280;66825;51.880;-0.518;2023-07-29T02:27:12;99563.03;;;22.47;48.94
39435;BME280;66825;51.880;-0.518;2023-07-29T02:29:37;99560.00;;;22.52;49.16
39435;BME280;66825;51.880;-0.518;2023-07-29T02:32:03;99555.25;;;22.49;49.12
39435;BME280;66825;51.880;-0.518;2023-07-29T02:34:29;99555.66;;;22.51;49.15
39435;BME280;66825;51.880;-0.518;2023-07-29T02:36:54;99548.25;;;22.52;49.17
39435;BME280;66825;51.880;-0.518;2023-07-29T02:39:20;99549.38;;;22.51;49.10
39435;BME280;66825;51.880;-0.518;2023-07-29T02:41:45;99552.13;;;22.51;49.12
39435;BME280;66825;51.880;-0.518;2023-07-29T02:44:11;99541.94;;;22.51;49.28
39435;BME280;66825;51.880;-0.518;2023-07-29T02:46:36;99485.28;;;22.11;49.27
39435;BME280;66825;51.880;-0.518;2023-07-29T02:49:03;99543.91;;;22.51;49.12
39435;BME280;66825;51.880;-0.518;2023-07-29T02:51:29;99547.78;;;22.50;49.08
39435;BME280;66825;51.880;-0.518;2023-07-29T02:53:55;99555.25;;;22.49;49.22
39435;BME280;66825;51.880;-0.518;2023-07-29T02:56:20;99530.28;;;22.39;48.86
39435;BME280;66825;51.880;-0.518;2023-07-29T02:58:46;99556.38;;;22.48;49.25
39435;BME280;66825;51.880;-0.518;2023-07-29T03:01:11;99556.75;;;22.47;49.15
39435;BME280;66825;51.880;-0.518;2023-07-29T03:03:37;99550.81;;;22.45;49.12
39435;BME280;66825;51.880;-0.518;2023-07-29T03:06:10;99550.34;;;22.43;49.13
39435;BME280;66825;51.880;-0.518;2023-07-29T03:08:36;99549.31;;;22.47;49.15
39435;BME280;66825;51.880;-0.518;2023-07-29T03:11:06;99548.16;;;22.48;49.05
39435;BME280;66825;51.880;-0.518;2023-07-29T03:13:32;99546.56;;;22.47;49.14
39435;BME280;66825;51.880;-0.518;2023-07-29T03:16:14;99545.78;;;22.47;49.19
39435;BME280;66825;51.880;-0.518;2023-07-29T03:18:41;99546.56;;;22.47;49.22
39435;BME280;66825;51.880;-0.518;2023-07-29T03:21:07;99497.50;;;22.14;49.08
39435;BME280;66825;51.880;-0.518;2023-07-29T03:23:33;99547.69;;;22.46;49.11
39435;BME280;66825;51.880;-0.518;2023-07-29T03:26:00;99547.69;;;22.46;49.19
39435;BME280;66825;51.880;-0.518;2023-07-29T03:28:28;99544.19;;;22.46;49.19
39435;BME280;66825;51.880;-0.518;2023-07-29T03:30:56;99540.63;;;22.45;49.08
39435;BME280;66825;51.880;-0.518;2023-07-29T03:33:23;99546.09;;;22.45;49.17
39435;BME280;66825;51.880;-0.518;2023-07-29T03:35:49;99540.16;;;22.43;49.21
39435;BME280;66825;51.880;-0.518;2023-07-29T03:38:15;99515.81;;;22.26;49.22
39435;BME280;66825;51.880;-0.518;2023-07-29T03:40:41;99538.25;;;22.44;49.16
39435;BME280;66825;51.880;-0.518;2023-07-29T03:43:07;99544.50;;;22.44;48.90
39435;BME280;66825;51.880;-0.518;2023-07-29T03:45:34;99541.34;;;22.42;49.06
39435;BME280;66825;51.880;-0.518;2023-07-29T03:47:59;99540.53;;;22.42;49.29
39435;BME280;66825;51.880;-0.518;2023-07-29T03:50:25;99529.34;;;22.34;48.96
39435;BME280;66825;51.880;-0.518;2023-07-29T03:52:51;99540.91;;;22.40;49.28
39435;BME280;66825;51.880;-0.518;2023-07-29T03:55:16;99541.34;;;22.42;49.08
39435;BME280;66825;51.880;-0.518;2023-07-29T03:57:42;99544.09;;;22.42;49.13
39435;BME280;66825;51.880;-0.518;2023-07-29T04:00:08;99541.25;;;22.39;49.29
39435;BME280;66825;51.880;-0.518;2023-07-29T04:02:36;99551.50;;;22.42;49.17
39435;BME280;66825;51.880;-0.518;2023-07-29T04:05:03;99545.56;;;22.40;49.09
39435;BME280;66825;51.880;-0.518;2023-07-29T04:07:30;99546.38;;;22.40;49.29
39435;BME280;66825;51.880;-0.518;2023-07-29T04:09:56;99548.66;;;22.38;49.06
39435;BME280;66825;51.880;-0.518;2023-07-29T04:12:22;99553.81;;;22.40;49.18
39435;BME280;66825;51.880;-0.518;2023-07-29T04:14:48;99542.19;;;22.30;49.01
39435;BME280;66825;51.880;-0.518;2023-07-29T04:17:14;99548.66;;;22.38;49.21
39435;BME280;66825;51.880;-0.518;2023-07-29T04:19:40;99554.13;;;22.38;49.23
39435;BME280;66825;51.880;-0.518;2023-07-29T04:22:05;99554.97;;;22.39;48.95
39435;BME280;66825;51.880;-0.518;2023-07-29T04:24:30;99520.22;;;22.14;49.07
39435;BME280;66825;51.880;-0.518;2023-07-29T04:26:56;99539.47;;;22.30;49.15
39435;BME280;66825;51.880;-0.518;2023-07-29T04:29:21;99549.38;;;22.35;49.08
39435;BME280;66825;51.880;-0.518;2023-07-29T04:31:51;99557.25;;;22.36;49.23
39435;BME280;66825;51.880;-0.518;2023-07-29T04:34:20;99493.06;;;21.93;49.11
39435;BME280;66825;51.880;-0.518;2023-07-29T04:36:46;99568.59;;;22.35;49.04
39435;BME280;66825;51.880;-0.518;2023-07-29T04:39:12;99558.31;;;22.32;49.09
39435;BME280;66825;51.880;-0.518;2023-07-29T04:41:37;99557.59;;;22.35;49.15
39435;BME280;66825;51.880;-0.518;2023-07-29T04:44:03;99546.44;;;22.28;49.01
39435;BME280;66825;51.880;-0.518;2023-07-29T04:46:29;99558.75;;;22.34;49.14
39435;BME280;66825;51.880;-0.518;2023-07-29T04:48:54;99541.22;;;22.23;49.12
39435;BME280;66825;51.880;-0.518;2023-07-29T04:51:19;99557.94;;;22.33;49.14
39435;BME280;66825;51.880;-0.518;2023-07-29T04:53:45;99557.16;;;22.33;49.03
39435;BME280;66825;51.880;-0.518;2023-07-29T04:56:11;99540.50;;;22.26;49.17
39435;BME280;66825;51.880;-0.518;2023-07-29T04:58:36;99552.81;;;22.32;49.20
39435;BME280;66825;51.880;-0.518;2023-07-29T05:01:03;99548.09;;;22.32;49.02
39435;BME280;66825;51.880;-0.518;2023-07-29T05:03:28;99555.56;;;22.32;49.14
39435;BME280;66825;51.880;-0.518;2023-07-29T05:05:54;99559.44;;;22.31;49.14
39435;BME280;66825;51.880;-0.518;2023-07-29T05:08:21;99553.19;;;22.30;49.20
39435;BME280;66825;51.880;-0.518;2023-07-29T05:10:51;99554.31;;;22.29;49.15
39435;BME280;66825;51.880;-0.518;2023-07-29T05:13:17;99557.84;;;22.30;48.98
39435;BME280;66825;51.880;-0.518;2023-07-29T05:15:43;99553.50;;;22.29;49.07
39435;BME280;66825;51.880;-0.518;2023-07-29T05:18:08;99558.22;;;22.28;49.22
39435;BME280;66825;51.880;-0.518;2023-07-29T05:20:34;99555.47;;;22.28;49.04
39435;BME280;66825;51.880;-0.518;2023-07-29T05:22:59;99547.84;;;22.21;49.02
39435;BME280;66825;51.880;-0.518;2023-07-29T05:25:25;99551.94;;;22.28;49.18
39435;BME280;66825;51.880;-0.518;2023-07-29T05:27:51;99498.94;;;21.92;49.06
39435;BME280;66825;51.880;-0.518;2023-07-29T05:30:16;99549.81;;;22.21;49.01
39435;BME280;66825;51.880;-0.518;2023-07-29T05:32:42;99551.50;;;22.26;49.22
39435;BME280;66825;51.880;-0.518;2023-07-29T05:35:07;99561.31;;;22.27;49.04
39435;BME280;66825;51.880;-0.518;2023-07-29T05:37:33;99512.72;;;21.95;49.11
39435;BME280;66825;51.880;-0.518;2023-07-29T05:39:59;99543.34;;;22.13;49.06
39435;BME280;66825;51.880;-0.518;2023-07-29T05:42:24;99556.16;;;22.25;49.24
39435;BME280;66825;51.880;-0.518;2023-07-29T05:44:49;99561.66;;;22.25;49.04
39435;BME280;66825;51.880;-0.518;2023-07-29T05:47:15;99562.00;;;22.24;49.06
39435;BME280;66825;51.880;-0.518;2023-07-29T05:49:40;99517.66;;;21.89;49.09
39435;BME280;66825;51.880;-0.518;2023-07-29T05:52:06;99571.84;;;22.25;48.99
39435;BME280;66825;51.880;-0.518;2023-07-29T05:54:32;99567.50;;;22.24;49.17
39435;BME280;66825;51.880;-0.518;2023-07-29T05:56:58;99572.97;;;22.24;49.23
39435;BME280;66825;51.880;-0.518;2023-07-29T05:59:23;99569.00;;;22.21;49.11
39435;BME280;66825;51.880;-0.518;2023-07-29T06:01:49;99576.09;;;22.22;49.16
39435;BME280;66825;51.880;-0.518;2023-07-29T06:04:14;99568.66;;;22.23;48.87
39435;BME280;66825;51.880;-0.518;2023-07-29T06:06:39;99575.28;;;22.21;49.04
39435;BME280;66825;51.880;-0.518;2023-07-29T06:09:05;99576.88;;;22.23;49.02
39435;BME280;66825;51.880;-0.518;2023-07-29T06:11:30;99530.22;;;21.91;48.64
39435;BME280;66825;51.880;-0.518;2023-07-29T06:13:56;99573.72;;;22.20;48.96
39435;BME280;66825;51.880;-0.518;2023-07-29T06:16:21;99587.44;;;22.20;48.97
39435;BME280;66825;51.880;-0.518;2023-07-29T06:18:47;99586.63;;;22.20;49.10
39435;BME280;66825;51.880;-0.518;2023-07-29T06:21:12;99586.63;;;22.20;49.14
39435;BME280;66825;51.880;-0.518;2023-07-29T06:23:43;99569.97;;;22.13;48.97
39435;BME280;66825;51.880;-0.518;2023-07-29T06:26:08;99574.66;;;22.12;49.03
39435;BME280;66825;51.880;-0.518;2023-07-29T06:28:34;99586.97;;;22.18;49.05
39435;BME280;66825;51.880;-0.518;2023-07-29T06:30:59;99581.47;;;22.18;49.18
39435;BME280;66825;51.880;-0.518;2023-07-29T06:33:25;99581.47;;;22.18;49.25
39435;BME280;66825;51.880;-0.518;2023-07-29T06:35:50;99548.09;;;22.00;49.08
39435;BME280;66825;51.880;-0.518;2023-07-29T06:38:15;99579.88;;;22.17;49.16
39435;BME280;66825;51.880;-0.518;2023-07-29T06:40:46;99567.84;;;22.06;48.85
39435;BME280;66825;51.880;-0.518;2023-07-29T06:43:12;99588.13;;;22.17;49.11
39435;BME280;66825;51.880;-0.518;2023-07-29T06:45:37;99577.50;;;22.16;49.02
39435;BME280;66825;51.880;-0.518;2023-07-29T06:48:03;99581.03;;;22.16;49.10
39435;BME280;66825;51.880;-0.518;2023-07-29T06:50:29;99547.56;;;21.95;49.17
39435;BME280;66825;51.880;-0.518;2023-07-29T06:52:54;99581.03;;;22.16;49.14
39435;BME280;66825;51.880;-0.518;2023-07-29T06:55:19;99582.19;;;22.15;49.13
39435;BME280;66825;51.880;-0.518;2023-07-29T06:57:45;99587.66;;;22.15;49.07
39435;BME280;66825;51.880;-0.518;2023-07-29T07:00:12;99578.66;;;22.15;49.08
39435;BME280;66825;51.880;-0.518;2023-07-29T07:02:37;99578.28;;;22.16;49.10
39435;BME280;66825;51.880;-0.518;2023-07-29T07:05:03;99589.63;;;22.15;49.04
39435;BME280;66825;51.880;-0.518;2023-07-29T07:07:28;99584.13;;;22.15;49.20
39435;BME280;66825;51.880;-0.518;2023-07-29T07:09:54;99591.56;;;22.14;49.11
39435;BME280;66825;51.880;-0.518;2023-07-29T07:12:19;99586.06;;;22.14;49.17
39435;BME280;66825;51.880;-0.518;2023-07-29T07:14:45;99587.25;;;22.13;49.03
39435;BME280;66825;51.880;-0.518;2023-07-29T07:17:10;99577.66;;;22.07;49.25
39435;BME280;66825;51.880;-0.518;2023-07-29T07:19:35;99589.97;;;22.13;49.17
39435;BME280;66825;51.880;-0.518;2023-07-29T07:22:01;99591.56;;;22.14;48.99
39435;BME280;66825;51.880;-0.518;2023-07-29T07:24:26;99591.91;;;22.13;49.05
39435;BME280;66825;51.880;-0.518;2023-07-29T07:26:52;99586.44;;;22.13;49.03
39435;BME280;66825;51.880;-0.518;2023-07-29T07:29:17;99589.16;;;22.13;49.17
39435;BME280;66825;51.880;-0.518;2023-07-29T07:31:50;99595.81;;;22.12;49.27
39435;BME280;66825;51.880;-0.518;2023-07-29T07:34:16;99572.53;;;22.05;49.14
39435;BME280;66825;51.880;-0.518;2023-07-29T07:36:42;99578.56;;;22.11;49.25
39435;BME280;66825;51.880;-0.518;2023-07-29T07:39:07;99585.19;;;22.10;48.99
39435;BME280;66825;51.880;-0.518;2023-07-29T07:41:32;99582.44;;;22.10;49.17
39435;BME280;66825;51.880;-0.518;2023-07-29T07:43:58;99585.97;;;22.11;49.08
39435;BME280;66825;51.880;-0.518;2023-07-29T07:46:23;99574.81;;;22.03;49.15
39435;BME280;66825;51.880;-0.518;2023-07-29T07:48:49;99584.41;;;22.10;49.04
39435;BME280;66825;51.880;-0.518;2023-07-29T07:51:14;99585.88;;;22.07;49.11
39435;BME280;66825;51.880;-0.518;2023-07-29T07:53:40;99576.78;;;22.03;48.96
39435;BME280;66825;51.880;-0.518;2023-07-29T07:56:06;99583.59;;;22.09;49.03
39435;BME280;66825;51.880;-0.518;2023-07-29T07:58:32;99574.56;;;22.09;49.21
39435;BME280;66825;51.880;-0.518;2023-07-29T08:01:02;99530.28;;;21.78;49.25
39435;BME280;66825;51.880;-0.518;2023-07-29T08:03:28;99572.97;;;22.08;49.08
39435;BME280;66825;51.880;-0.518;2023-07-29T08:05:53;99578.81;;;22.06;49.20
39435;BME280;66825;51.880;-0.518;2023-07-29T08:08:18;99580.06;;;22.09;49.21
39435;BME280;66825;51.880;-0.518;2023-07-29T08:10:44;99519.13;;;21.71;49.10
39435;BME280;66825;51.880;-0.518;2023-07-29T08:13:09;99578.47;;;22.08;49.38
39435;BME280;66825;51.880;-0.518;2023-07-29T08:15:35;99572.06;;;22.03;48.86
39435;BME280;66825;51.880;-0.518;2023-07-29T08:18:00;99580.38;;;22.07;49.06
39435;BME280;66825;51.880;-0.518;2023-07-29T08:20:26;99574.47;;;22.05;49.15
39435;BME280;66825;51.880;-0.518;2023-07-29T08:22:51;99573.66;;;22.04;49.24
39435;BME280;66825;51.880;-0.518;2023-07-29T08:25:17;99572.06;;;22.03;49.13
39435;BME280;66825;51.880;-0.518;2023-07-29T08:27:42;99578.00;;;22.05;49.20
39435;BME280;66825;51.880;-0.518;2023-07-29T08:30:08;99572.53;;;22.05;49.22
39435;BME280;66825;51.880;-0.518;2023-07-29T08:32:34;99579.97;;;22.05;49.11
39435;BME280;66825;51.880;-0.518;2023-07-29T08:34:59;99575.25;;;22.05;49.12
39435;BME280;66825;51.880;-0.518;2023-07-29T08:37:24;99524.59;;;21.71;49.04
39435;BME280;66825;51.880;-0.518;2023-07-29T08:39:52;99575.63;;;22.04;49.18
39435;BME280;66825;51.880;-0.518;2023-07-29T08:42:19;99577.91;;;22.02;49.12
39435;BME280;66825;51.880;-0.518;2023-07-29T08:44:48;99581.13;;;22.04;49.21
39435;BME280;66825;51.880;-0.518;2023-07-29T08:47:14;99570.13;;;22.04;49.15
39435;BME280;66825;51.880;-0.518;2023-07-29T08:49:40;99566.59;;;22.03;49.11
39435;BME280;66825;51.880;-0.518;2023-07-29T08:52:07;99574.03;;;22.03;49.05
39435;BME280;66825;51.880;-0.518;2023-07-29T08:54:33;99574.81;;;22.03;49.33
39435;BME280;66825;51.880;-0.518;2023-07-29T08:56:59;99566.59;;;22.03;49.18
39435;BME280;66825;51.880;-0.518;2023-07-29T08:59:26;99576.78;;;22.03;49.12
39435;BME280;66825;51.880;-0.518;2023-07-29T09:01:52;99584.22;;;22.02;49.25
39435;BME280;66825;51.880;-0.518;2023-07-29T09:04:20;99578.72;;;22.02;49.03
39435;BME280;66825;51.880;-0.518;2023-07-29T09:06:50;99590.47;;;22.03;48.98
39435;BME280;66825;51.880;-0.518;2023-07-29T09:09:16;99583.41;;;22.02;49.10
39435;BME280;66825;51.880;-0.518;2023-07-29T09:11:41;99582.16;;;21.99;49.08
39435;BME280;66825;51.880;-0.518;2023-07-29T09:14:07;99581.81;;;22.01;49.06
39435;BME280;66825;51.880;-0.518;2023-07-29T09:16:32;99579.06;;;22.01;49.19
39435;BME280;66825;51.880;-0.518;2023-07-29T09:19:03;99577.13;;;22.01;49.03
39435;BME280;66825;51.880;-0.518;2023-07-29T09:21:29;99586.50;;;22.00;49.20
39435;BME280;66825;51.880;-0.518;2023-07-29T09:23:55;99576.31;;;22.01;49.05
39435;BME280;66825;51.880;-0.518;2023-07-29T09:26:30;99577.47;;;22.00;49.15
39435;BME280;66825;51.880;-0.518;2023-07-29T09:28:58;99570.22;;;21.92;49.13
39435;BME280;66825;51.880;-0.518;2023-07-29T09:31:25;99576.69;;;21.99;49.30
39435;BME280;66825;51.880;-0.518;2023-07-29T09:34:01;99576.69;;;21.99;49.20
39435;BME280;66825;51.880;-0.518;2023-07-29T09:36:27;99580.22;;;22.00;49.09
39435;BME280;66825;51.880;-0.518;2023-07-29T09:38:54;99588.78;;;21.98;48.93
39435;BME280;66825;51.880;-0.518;2023-07-29T09:41:22;99584.91;;;21.99;49.03
39435;BME280;66825;51.880;-0.518;2023-07-29T09:43:55;99581.72;;;21.97;49.17
39435;BME280;66825;51.880;-0.518;2023-07-29T09:46:22;99570.91;;;21.88;49.08
39435;BME280;66825;51.880;-0.518;2023-07-29T09:48:48;99591.53;;;21.98;49.00
39435;BME280;66825;51.880;-0.518;2023-07-29T09:51:15;99543.28;;;21.65;48.91
39435;BME280;66825;51.880;-0.518;2023-07-29T09:53:46;99589.94;;;21.97;49.03
39435;BME280;66825;51.880;-0.518;2023-07-29T09:56:12;99584.03;;;21.95;48.98
39435;BME280;66825;51.880;-0.518;2023-07-29T09:58:38;99596.22;;;21.98;48.98
39435;BME280;66825;51.880;-0.518;2023-07-29T10:01:06;99580.81;;;21.93;48.94
39435;BME280;66825;51.880;-0.518;2023-07-29T10:03:33;99532.91;;;21.58;48.99
39435;BME280;66825;51.880;-0.518;2023-07-29T10:06:04;99589.16;;;21.97;49.03
39435;BME280;66825;51.880;-0.518;2023-07-29T10:08:30;99588.34;;;21.96;48.93
39435;BME280;66825;51.880;-0.518;2023-07-29T10:11:08;99587.56;;;21.96;49.09
39435;BME280;66825;51.880;-0.518;2023-07-29T10:13:34;99595.00;;;21.95;49.02
39435;BME280;66825;51.880;-0.518;2023-07-29T10:16:00;99595.78;;;21.96;48.86
39435;BME280;66825;51.880;-0.518;2023-07-29T10:18:28;99578.53;;;21.95;48.89
39435;BME280;66825;51.880;-0.518;2023-07-29T10:20:56;99581.28;;;21.95;49.00
39435;BME280;66825;51.880;-0.518;2023-07-29T10:23:25;99546.78;;;21.66;48.81
39435;BME280;66825;51.880;-0.518;2023-07-29T10:25:57;99594.19;;;21.95;48.81
39435;BME280;66825;51.880;-0.518;2023-07-29T10:28:29;99586.78;;;21.95;49.00
39435;BME280;66825;51.880;-0.518;2023-07-29T10:30:59;99586.31;;;21.93;48.95
39435;BME280;66825;51.880;-0.518;2023-07-29T10:33:27;99599.66;;;21.95;48.98
39435;BME280;66825;51.880;-0.518;2023-07-29T10:35:53;99600.38;;;21.92;48.97
39435;BME280;66825;51.880;-0.518;2023-07-29T10:38:23;99594.53;;;21.93;48.94
39435;BME280;66825;51.880;-0.518;2023-07-29T10:40:56;99602.75;;;21.93;48.95
39435;BME280;66825;51.880;-0.518;2023-07-29T10:43:32;99609.41;;;21.92;48.91
39435;BME280;66825;51.880;-0.518;2023-07-29T10:46:20;99604.69;;;21.93;48.78
39435;BME280;66825;51.880;-0.518;2023-07-29T10:51:36;99601.16;;;21.92;48.78
39435;BME280;66825;51.880;-0.518;2023-07-29T10:54:04;99610.53;;;21.91;48.83
39435;BME280;66825;51.880;-0.518;2023-07-29T10:56:36;99614.09;;;21.92;48.70
39435;BME280;66825;51.880;-0.518;2023-07-29T11:01:50;99613.28;;;21.91;48.71
39435;BME280;66825;51.880;-0.518;2023-07-29T11:15:04;99590.59;;;21.78;48.71
39435;BME280;66825;51.880;-0.518;2023-07-29T11:17:33;99603.16;;;21.79;48.83
39435;BME280;66825;51.880;-0.518;2023-07-29T11:20:03;99589.34;;;21.76;48.79
39435;BME280;66825;51.880;-0.518;2023-07-29T11:22:29;99614.00;;;21.88;48.72
39435;BME280;66825;51.880;-0.518;2023-07-29T11:24:55;99613.09;;;21.84;48.47
39435;BME280;66825;51.880;-0.518;2023-07-29T11:27:20;99623.78;;;21.89;48.58
39435;BME280;66825;51.880;-0.518;2023-07-29T11:29:47;99550.34;;;21.54;48.53
39435;BME280;66825;51.880;-0.518;2023-07-29T11:32:12;99607.94;;;21.82;48.72
39435;BME280;66825;51.880;-0.518;2023-07-29T11:34:38;99605.91;;;21.79;48.71
39435;BME280;66825;51.880;-0.518;2023-07-29T11:37:05;99616.72;;;21.88;48.46
39435;BME280;66825;51.880;-0.518;2023-07-29T11:39:32;99614.00;;;21.88;48.63
39435;BME280;66825;51.880;-0.518;2023-07-29T11:41:58;99614.00;;;21.88;48.51
39435;BME280;66825;51.880;-0.518;2023-07-29T11:44:24;99603.16;;;21.79;48.48
39435;BME280;66825;51.880;-0.518;2023-07-29T11:46:50;99628.50;;;21.88;48.50
39435;BME280;66825;51.880;-0.518;2023-07-29T11:49:15;99627.72;;;21.88;48.59
39435;BME280;66825;51.880;-0.518;2023-07-29T11:51:41;99628.03;;;21.86;48.37
39435;BME280;66825;51.880;-0.518;2023-07-29T11:54:08;99617.06;;;21.86;48.33
39435;BME280;66825;51.880;-0.518;2023-07-29T11:56:35;99619.81;;;21.86;48.36
39435;BME280;66825;51.880;-0.518;2023-07-29T11:59:01;99616.28;;;21.86;48.37
39435;BME280;66825;51.880;-0.518;2023-07-29T12:01:28;99611.94;;;21.85;48.22
39435;BME280;66825;51.880;-0.518;2023-07-29T12:03:55;99619.81;;;21.86;48.46
39435;BME280;66825;51.880;-0.518;2023-07-29T12:06:23;99612.41;;;21.87;48.12
39435;BME280;66825;51.880;-0.518;2023-07-29T12:08:50;99608.84;;;21.86;48.04
39435;BME280;66825;51.880;-0.518;2023-07-29T12:11:16;99610.94;;;21.77;48.28
39435;BME280;66825;51.880;-0.518;2023-07-29T12:13:43;99616.97;;;21.83;48.15
39435;BME280;66825;51.880;-0.518;2023-07-29T12:16:08;99626.44;;;21.85;48.16
39435;BME280;66825;51.880;-0.518;2023-07-29T12:18:34;99614.22;;;21.83;48.18
39435;BME280;66825;51.880;-0.518;2023-07-29T12:20:59;99617.69;;;21.80;47.86
39435;BME280;66825;51.880;-0.518;2023-07-29T12:23:26;99593.03;;;21.67;47.99
39435;BME280;66825;51.880;-0.518;2023-07-29T12:25:58;99609.19;;;21.85;47.95
39435;BME280;66825;51.880;-0.518;2023-07-29T12:28:27;99612.28;;;21.83;47.80
39435;BME280;66825;51.880;-0.518;2023-07-29T12:30:54;99594.06;;;21.75;47.93
39435;BME280;66825;51.880;-0.518;2023-07-29T12:33:35;99500.59;;;21.11;47.83
39435;BME280;66825;51.880;-0.518;2023-07-29T12:36:02;99603.25;;;21.83;47.90
39435;BME280;66825;51.880;-0.518;2023-07-29T12:38:28;99612.63;;;21.82;47.77
39435;BME280;66825;51.880;-0.518;2023-07-29T12:40:54;99611.84;;;21.81;47.82
39435;BME280;66825;51.880;-0.518;2023-07-29T12:43:19;99612.63;;;21.82;47.97
39435;BME280;66825;51.880;-0.518;2023-07-29T12:45:44;99618.94;;;21.82;47.77
39435;BME280;66825;51.880;-0.518;2023-07-29T12:48:10;99612.19;;;21.80;47.75
39435;BME280;66825;51.880;-0.518;2023-07-29T12:50:37;99614.59;;;21.81;47.70
39435;BME280;66825;51.880;-0.518;2023-07-29T12:53:07;99620.06;;;21.81;47.59
39435;BME280;66825;51.880;-0.518;2023-07-29T12:55:33;99586.78;;;21.67;47.57
39435;BME280;66825;51.880;-0.518;2023-07-29T12:57:58;99611.06;;;21.81;47.87
39435;BME280;66825;51.880;-0.518;2023-07-29T13:00:24;99619.28;;;21.81;47.64
39435;BME280;66825;51.880;-0.518;2023-07-29T13:02:50;99610.59;;;21.79;47.56
39435;BME280;66825;51.880;-0.518;2023-07-29T13:05:16;99618.81;;;21.79;47.56
39435;BME280;66825;51.880;-0.518;2023-07-29T13:07:42;99617.69;;;21.80;47.55